Chantal — A8WQ3 — position and weather

sailwx.info

Track history (hours):
 
Tides and Currents Weather Stations Pressure Air Temp Water Temp Dewpoint Dewpoint Depression Visibility Wind Speed Wind Dir Waves Ship Positions

Chantal

Last reported at 2017-May-25 09:26 UTC. Time now 2017-Jun-25 02:03 UTC.
Position N 33°08' W 122°01'.
Warning: this ship's position is 30 days out of date.

Length 228 m; draft 8.4 m.

Type: Tanker. MMSI: 636014805.

Date/timePositionNaut miles runAvg speedWind from/ knotsBaromVisibWave heightAir tempDewpointWater temp
2017-May-25 09:26N 33°08' W 122°01'613.8
2017-May-25 08:58N 33°14' W 122°03'613.9
2017-May-25 08:30N 33°20' W 122°05'8713.4
2017-May-25 02:03N 34°43' W 122°35'012.8
2017-May-25 02:00N 34°44' W 122°35'712.9
2017-May-25 01:27N 34°51' W 122°37'613.2
2017-May-25 01:00N 34°56' W 122°39'713.5
2017-May-25 00:28N 35°03' W 122°41'613.4
2017-May-25 00:00N 35°09' W 122°44'713.3
2017-May-24 23:27N 35°16' W 122°46'613.3
2017-May-24 23:00N 35°22' W 122°49'713.2
2017-May-24 22:30N 35°28' W 122°51'613.3
2017-May-24 22:00N 35°35' W 122°53'713.3
2017-May-24 21:28N 35°42' W 122°55'913.4
2017-May-24 20:48N 35°50' W 122°58'413.4
2017-May-24 20:30N 35°54' W 122°59'713.5
2017-May-24 20:00N 36°00' W 123°02'713.2
2017-May-24 19:30N 36°07' W 123°04'713.5
2017-May-24 19:00N 36°13' W 123°06'713.4
2017-May-24 18:30N 36°20' W 123°09'813.3
2017-May-24 17:52N 36°28' W 123°10'513.3
2017-May-24 17:30N 36°33' W 123°11'713.2
2017-May-24 17:00N 36°39' W 123°10'713.1
2017-May-24 16:30N 36°46' W 123°10'612.7
2017-May-24 16:00N 36°52' W 123°11'612.3
2017-May-24 15:30N 36°58' W 123°10'612.2
2017-May-24 15:00N 37°04' W 123°10'1312.8
2017-May-24 14:00N 37°17' W 123°09'713.3
2017-May-24 13:30N 37°24' W 123°09'713.0
2017-May-24 13:00N 37°30' W 123°06'611.9
2017-May-24 12:30N 37°35' W 123°02'510.9
2017-May-24 12:00N 37°38' W 122°57'510.9
2017-May-24 11:30N 37°41' W 122°51'510.5
2017-May-24 11:00N 37°43' W 122°45'4 8.6
2017-May-24 10:30N 37°46' W 122°40'714.8
2017-May-24 10:00N 37°48' W 122°32'713.3
2017-May-24 09:30N 37°53' W 122°26'714.5
2017-May-24 09:00N 38°00' W 122°25'713.1
2017-May-24 08:30N 38°03' W 122°18'611.2
2017-May-24 08:00N 38°03' W 122°11'3 0.1
2017-May-23 04:40N 38°02' W 122°07'0 0.6
2017-May-23 04:30N 38°02' W 122°08'2 3.4
2017-May-23 03:49N 38°03' W 122°10'3 8.4
2017-May-23 03:30N 38°04' W 122°13'510.1
2017-May-23 03:00N 38°03' W 122°20'510.2
2017-May-23 02:30N 38°00' W 122°25'511.0
2017-May-23 02:00N 37°55' W 122°27'510.8
2017-May-23 01:30N 37°50' W 122°24'4 8.6
2017-May-23 01:01N 37°46' W 122°22'3 6.4
2017-May-23 00:29N 37°43' W 122°20'0 0.1
2017-May-22 23:59N 37°43' W 122°20'0 0.2
2017-May-22 23:29N 37°43' W 122°20'0 0.1
2017-May-22 22:59N 37°43' W 122°20'0 0.1
2017-May-22 22:29N 37°43' W 122°20'0 0.1
2017-May-22 21:59N 37°43' W 122°20'0 0.0
2017-May-22 21:29N 37°43' W 122°20'0 0.0
2017-May-22 20:59N 37°43' W 122°20'0 0.0
2017-May-22 20:29N 37°43' W 122°20'0 0.0
2017-May-22 19:59N 37°43' W 122°20'0 0.0
2017-May-22 19:29N 37°43' W 122°20'0 0.1
2017-May-22 18:59N 37°43' W 122°20'0 0.4
2017-May-22 18:29N 37°43' W 122°20'0 0.1
2017-May-22 17:59N 37°43' W 122°20'0 0.1
2017-May-22 17:29N 37°43' W 122°20'0 0.0
2017-May-22 16:59N 37°43' W 122°20'0 0.1
2017-May-22 16:29N 37°43' W 122°20'0 0.1
2017-May-22 15:59N 37°43' W 122°20'0 0.0
2017-May-22 15:29N 37°43' W 122°20'0 0.0
2017-May-22 14:59N 37°43' W 122°20'0 0.0
2017-May-22 13:59N 37°43' W 122°20'0 0.0
2017-May-22 13:29N 37°43' W 122°20'0 0.0
2017-May-22 12:59N 37°43' W 122°20'0 0.1
2017-May-22 12:29N 37°43' W 122°20'0 0.2
2017-May-22 11:59N 37°43' W 122°20'0 0.3
2017-May-22 11:29N 37°43' W 122°20'0 0.1
2017-May-22 10:59N 37°43' W 122°20'0 0.0
2017-May-22 10:29N 37°43' W 122°20'0 0.0
2017-May-22 09:59N 37°43' W 122°20'0 0.0
2017-May-22 09:29N 37°43' W 122°20'0 0.0
2017-May-22 08:59N 37°43' W 122°20'0 0.1
2017-May-22 08:23N 37°43' W 122°20'0 0.1
2017-May-22 07:59N 37°43' W 122°20'0 0.1
2017-May-22 07:26N 37°43' W 122°20'0 0.2
2017-May-22 06:59N 37°43' W 122°20'0 0.2
2017-May-22 06:29N 37°43' W 122°20'0 0.3
2017-May-22 05:59N 37°43' W 122°20'0 0.1
2017-May-22 05:29N 37°43' W 122°20'0 0.0
2017-May-22 04:59N 37°43' W 122°20'0 0.0
2017-May-22 04:29N 37°43' W 122°20'0 0.1
2017-May-22 03:59N 37°43' W 122°20'0 0.1
2017-May-22 03:29N 37°43' W 122°20'0 0.0
2017-May-22 02:59N 37°43' W 122°20'0 0.0
2017-May-22 02:29N 37°43' W 122°20'0 0.0
2017-May-22 01:59N 37°43' W 122°20'0 0.0
2017-May-22 01:29N 37°43' W 122°20'0 0.0
2017-May-22 00:59N 37°43' W 122°20'0 0.0
2017-May-22 00:29N 37°43' W 122°20'0 0.0
2017-May-21 23:59N 37°43' W 122°20'0 0.0
2017-May-21 23:29N 37°43' W 122°20'0 0.2
2017-May-21 22:59N 37°43' W 122°20'0 0.2
2017-May-21 22:29N 37°43' W 122°20'0 0.1
2017-May-21 21:59N 37°43' W 122°20'0 0.0
2017-May-21 21:29N 37°43' W 122°20'0 0.0
2017-May-21 20:59N 37°43' W 122°20'0 0.1
2017-May-21 20:29N 37°43' W 122°20'0 0.0
2017-May-21 19:59N 37°43' W 122°20'0 0.0
2017-May-21 19:29N 37°43' W 122°20'0 0.0
2017-May-21 18:59N 37°43' W 122°20'0 0.1
2017-May-21 18:29N 37°43' W 122°20'0 0.0
2017-May-21 17:59N 37°43' W 122°20'0 0.2
2017-May-21 17:29N 37°43' W 122°20'0 0.2
2017-May-21 16:59N 37°43' W 122°20'0 0.0
2017-May-21 16:29N 37°43' W 122°20'0 0.1
2017-May-21 15:59N 37°43' W 122°20'0 0.0
2017-May-21 15:29N 37°43' W 122°20'0 0.0
2017-May-21 14:59N 37°43' W 122°20'0 0.0
2017-May-21 13:59N 37°43' W 122°20'0 0.0
2017-May-21 13:29N 37°43' W 122°20'0 0.0
2017-May-21 12:59N 37°43' W 122°20'0 0.0
2017-May-21 12:29N 37°43' W 122°20'0 0.1
2017-May-21 11:59N 37°43' W 122°20'0 0.1
2017-May-21 11:29N 37°43' W 122°20'0 0.2
2017-May-21 10:59N 37°43' W 122°20'0 0.3
2017-May-21 10:29N 37°43' W 122°20'0 0.0
2017-May-21 09:59N 37°43' W 122°20'0 0.0
2017-May-21 09:29N 37°43' W 122°20'0 0.1
2017-May-21 08:59N 37°43' W 122°20'0 0.0
2017-May-21 08:29N 37°43' W 122°20'0 0.0
2017-May-21 07:59N 37°43' W 122°20'0 0.1
2017-May-21 07:29N 37°43' W 122°20'0 0.0
2017-May-21 06:59N 37°43' W 122°20'0 0.2
2017-May-21 06:29N 37°43' W 122°20'0 0.2
2017-May-21 05:59N 37°43' W 122°20'0 0.0
2017-May-21 05:29N 37°43' W 122°20'0 0.1
2017-May-21 04:59N 37°43' W 122°20'0 0.1
2017-May-21 04:29N 37°43' W 122°20'0 0.0
2017-May-21 03:59N 37°43' W 122°20'0 0.0
2017-May-21 03:29N 37°43' W 122°20'0 0.0
2017-May-21 02:59N 37°43' W 122°20'0 0.0
2017-May-21 02:29N 37°43' W 122°20'0 0.0
2017-May-21 01:59N 37°43' W 122°20'0 0.0
2017-May-21 01:29N 37°43' W 122°20'0 0.0
2017-May-21 00:59N 37°43' W 122°20'0 0.0
2017-May-21 00:29N 37°43' W 122°20'0 0.0
2017-May-20 23:59N 37°43' W 122°20'0 0.0
2017-May-20 23:29N 37°43' W 122°20'0 0.0
2017-May-20 22:59N 37°43' W 122°20'0 0.1
2017-May-20 22:29N 37°43' W 122°20'0 0.2
2017-May-20 21:59N 37°43' W 122°20'0 0.2
2017-May-20 21:29N 37°43' W 122°20'0 0.1
2017-May-20 20:59N 37°43' W 122°20'0 0.1
2017-May-20 20:29N 37°43' W 122°20'0 0.1
2017-May-20 19:59N 37°43' W 122°20'0 0.1
2017-May-20 19:29N 37°43' W 122°20'0 0.0
2017-May-20 18:59N 37°43' W 122°20'0 0.0
2017-May-20 18:29N 37°43' W 122°20'0 0.0
2017-May-20 17:56N 37°43' W 122°20'0 0.0
2017-May-20 17:29N 37°43' W 122°20'0 0.0
2017-May-20 16:59N 37°43' W 122°20'0 0.1
2017-May-20 16:26N 37°43' W 122°20'0 0.3
2017-May-20 15:59N 37°43' W 122°20'0 0.1
2017-May-20 15:29N 37°43' W 122°20'0 0.1
2017-May-20 14:59N 37°43' W 122°20'0 0.0
2017-May-20 14:29N 37°43' W 122°20'0 0.0
2017-May-20 13:29N 37°43' W 122°20'0 0.1
2017-May-20 12:59N 37°43' W 122°20'0 0.0
2017-May-20 12:29N 37°43' W 122°20'0 0.1
2017-May-20 11:59N 37°43' W 122°20'0 0.1
2017-May-20 11:29N 37°43' W 122°20'0 0.0
2017-May-20 10:59N 37°43' W 122°20'0 0.1
2017-May-20 10:29N 37°43' W 122°20'0 0.2
2017-May-20 09:59N 37°43' W 122°20'0 0.1
2017-May-20 09:29N 37°43' W 122°20'0 0.1
2017-May-20 08:59N 37°43' W 122°20'0 0.1
2017-May-20 08:29N 37°43' W 122°20'0 0.0
2017-May-20 07:59N 37°43' W 122°20'0 0.0
2017-May-20 07:29N 37°43' W 122°20'0 0.1
2017-May-20 06:59N 37°43' W 122°20'0 0.0
2017-May-20 06:29N 37°43' W 122°20'0 0.1
2017-May-20 05:59N 37°43' W 122°20'0 0.3
2017-May-20 05:29N 37°43' W 122°20'0 0.1
2017-May-20 04:59N 37°43' W 122°20'0 0.1
2017-May-20 04:29N 37°43' W 122°20'0 0.1
2017-May-20 03:59N 37°43' W 122°20'0 0.1
2017-May-20 03:29N 37°43' W 122°20'0 0.0
2017-May-20 02:59N 37°43' W 122°20'0 0.0
2017-May-20 02:29N 37°43' W 122°20'0 0.0
2017-May-20 01:59N 37°43' W 122°20'0 0.0
2017-May-20 01:29N 37°43' W 122°20'0 0.0
2017-May-20 00:59N 37°43' W 122°20'0 0.0
2017-May-20 00:29N 37°43' W 122°20'0 0.0
2017-May-19 23:59N 37°43' W 122°20'0 0.0
2017-May-19 23:29N 37°43' W 122°20'0 0.1
2017-May-19 22:59N 37°43' W 122°20'0 0.1
2017-May-19 22:29N 37°43' W 122°20'0 0.0
2017-May-19 21:59N 37°43' W 122°20'0 0.2
2017-May-19 21:29N 37°43' W 122°20'0 0.2
2017-May-19 20:59N 37°43' W 122°20'0 0.1
2017-May-19 20:29N 37°43' W 122°20'0 0.0
2017-May-19 19:59N 37°43' W 122°20'0 0.0
2017-May-19 19:29N 37°43' W 122°20'0 0.0
2017-May-19 18:59N 37°43' W 122°20'0 0.1
2017-May-19 18:29N 37°43' W 122°20'0 0.0
2017-May-19 17:59N 37°43' W 122°20'0 0.0
2017-May-19 17:29N 37°43' W 122°20'0 0.0
2017-May-19 16:59N 37°43' W 122°20'0 0.0
2017-May-19 16:29N 37°43' W 122°20'0 0.0
2017-May-19 15:59N 37°43' W 122°20'0 0.0
2017-May-19 15:29N 37°43' W 122°20'0 0.2
2017-May-19 14:59N 37°43' W 122°20'0 0.2
2017-May-19 13:59N 37°43' W 122°20'0 0.0
2017-May-19 13:29N 37°43' W 122°20'0 0.0
2017-May-19 12:59N 37°43' W 122°20'0 0.0
2017-May-19 12:29N 37°43' W 122°20'0 0.0
2017-May-19 11:59N 37°43' W 122°20'0 0.0
2017-May-19 11:29N 37°43' W 122°20'0 0.0
2017-May-19 10:59N 37°43' W 122°20'0 0.0
2017-May-19 10:29N 37°43' W 122°20'0 0.1
2017-May-19 09:59N 37°43' W 122°20'0 0.2
2017-May-19 09:29N 37°43' W 122°20'0 0.2
2017-May-19 08:59N 37°43' W 122°20'0 0.1
2017-May-19 08:29N 37°43' W 122°20'0 0.0
2017-May-19 07:59N 37°43' W 122°20'0 0.1
2017-May-19 07:29N 37°43' W 122°20'0 0.0
2017-May-19 06:59N 37°43' W 122°20'0 0.1
2017-May-19 06:29N 37°43' W 122°20'0 0.1
2017-May-19 05:59N 37°43' W 122°20'0 0.2
2017-May-19 05:29N 37°43' W 122°20'0 0.2
2017-May-19 04:59N 37°43' W 122°20'0 0.0
2017-May-19 04:29N 37°43' W 122°20'0 0.2
2017-May-19 03:59N 37°43' W 122°20'0 0.1
2017-May-19 03:29N 37°43' W 122°20'0 0.1
2017-May-19 02:59N 37°43' W 122°20'0 0.0
2017-May-19 02:29N 37°43' W 122°20'0 0.0
2017-May-19 01:59N 37°43' W 122°20'0 0.0
2017-May-19 01:29N 37°43' W 122°20'0 0.0
2017-May-19 00:59N 37°43' W 122°20'0 0.0
2017-May-19 00:29N 37°43' W 122°20'0 0.0
2017-May-18 23:59N 37°43' W 122°20'0 0.0
2017-May-18 23:29N 37°43' W 122°20'0 0.1
2017-May-18 22:59N 37°43' W 122°20'0 0.1
2017-May-18 22:29N 37°43' W 122°20'0 0.0
2017-May-18 21:59N 37°43' W 122°20'0 0.1
2017-May-18 21:29N 37°43' W 122°20'0 0.0
2017-May-18 20:59N 37°43' W 122°20'0 0.2
2017-May-18 20:29N 37°43' W 122°20'0 0.2
2017-May-18 19:59N 37°43' W 122°20'0 0.1
2017-May-18 19:29N 37°43' W 122°20'0 0.1
2017-May-18 18:59N 37°43' W 122°20'0 0.1
2017-May-18 18:29N 37°43' W 122°20'0 0.0
2017-May-18 17:59N 37°43' W 122°20'0 0.0
2017-May-18 17:29N 37°43' W 122°20'0 0.1
2017-May-18 16:59N 37°43' W 122°20'0 0.0
2017-May-18 16:29N 37°43' W 122°20'0 0.0
2017-May-18 15:59N 37°43' W 122°20'0 0.0
2017-May-18 15:29N 37°43' W 122°20'0 0.0
2017-May-18 14:59N 37°43' W 122°20'0 0.0
2017-May-18 14:29N 37°43' W 122°20'0 0.2
2017-May-18 13:29N 37°43' W 122°20'0 0.1
2017-May-18 12:59N 37°43' W 122°20'0 0.1
2017-May-18 12:29N 37°43' W 122°20'0 0.0
2017-May-18 11:59N 37°43' W 122°20'0 0.0
2017-May-18 11:29N 37°43' W 122°20'0 0.0
2017-May-18 10:59N 37°43' W 122°20'0 0.1
2017-May-18 10:29N 37°43' W 122°20'0 0.0
2017-May-18 09:59N 37°43' W 122°20'0 0.0
2017-May-18 09:29N 37°43' W 122°20'0 0.1
2017-May-18 08:59N 37°43' W 122°20'0 0.3
2017-May-18 08:29N 37°43' W 122°20'0 0.3
2017-May-18 07:56N 37°43' W 122°20'0 0.0
2017-May-18 07:29N 37°43' W 122°20'0 0.0
2017-May-18 06:59N 37°43' W 122°20'0 0.1
2017-May-18 06:29N 37°43' W 122°20'0 0.0
2017-May-18 05:59N 37°43' W 122°20'0 0.0
2017-May-18 05:29N 37°43' W 122°20'0 0.4
2017-May-18 04:59N 37°43' W 122°20'0 0.1
2017-May-18 04:29N 37°43' W 122°20'0 0.0
2017-May-18 03:59N 37°43' W 122°20'0 0.0
2017-May-18 03:29N 37°43' W 122°20'0 0.1
2017-May-18 02:59N 37°43' W 122°20'0 0.1
2017-May-18 02:29N 37°43' W 122°20'0 0.1
2017-May-18 01:59N 37°43' W 122°20'0 0.0
2017-May-18 01:29N 37°43' W 122°20'0 0.0
2017-May-18 00:59N 37°43' W 122°20'0 0.0
2017-May-18 00:29N 37°43' W 122°20'0 0.0
2017-May-17 23:59N 37°43' W 122°20'0 0.0
2017-May-17 23:29N 37°43' W 122°20'0 0.0
2017-May-17 22:59N 37°43' W 122°20'0 0.1
2017-May-17 22:29N 37°43' W 122°20'0 0.0
2017-May-17 21:59N 37°43' W 122°20'0 0.1
2017-May-17 21:29N 37°43' W 122°20'0 0.1
2017-May-17 20:59N 37°43' W 122°20'0 0.1
2017-May-17 20:29N 37°43' W 122°20'0 0.1
2017-May-17 19:59N 37°43' W 122°20'0 0.2
2017-May-17 19:29N 37°43' W 122°20'0 0.1
2017-May-17 18:59N 37°43' W 122°20'0 0.0
2017-May-17 18:29N 37°43' W 122°20'0 0.0
2017-May-17 17:59N 37°43' W 122°20'0 0.0
2017-May-17 17:29N 37°43' W 122°20'0 0.1
2017-May-17 16:59N 37°43' W 122°20'0 0.0
2017-May-17 16:29N 37°43' W 122°20'0 0.0
2017-May-17 15:59N 37°43' W 122°20'0 0.0
2017-May-17 15:29N 37°43' W 122°20'0 0.0
2017-May-17 14:59N 37°43' W 122°20'0 0.0
2017-May-17 14:29N 37°43' W 122°20'0 0.0
2017-May-17 13:29N 37°43' W 122°20'0 0.0
2017-May-17 12:59N 37°43' W 122°20'0 0.2
2017-May-17 12:29N 37°43' W 122°20'0 0.3
2017-May-17 11:59N 37°43' W 122°20'0 0.2
2017-May-17 11:29N 37°43' W 122°20'0 0.1
2017-May-17 10:59N 37°43' W 122°20'0 0.0
2017-May-17 10:29N 37°43' W 122°20'0 0.1
2017-May-17 09:59N 37°43' W 122°20'0 0.0
2017-May-17 09:29N 37°43' W 122°20'0 0.0
2017-May-17 08:59N 37°43' W 122°20'0 0.0
2017-May-17 08:29N 37°43' W 122°20'0 0.1
2017-May-17 07:56N 37°43' W 122°20'0 0.0
2017-May-17 07:29N 37°43' W 122°20'0 0.1
2017-May-17 06:59N 37°43' W 122°20'0 0.0
2017-May-17 06:29N 37°43' W 122°20'0 0.1
2017-May-17 05:59N 37°43' W 122°20'0 0.4
2017-May-17 05:29N 37°43' W 122°20'0 0.0
2017-May-17 04:59N 37°43' W 122°20'0 0.1
2017-May-17 04:29N 37°43' W 122°20'0 0.3
2017-May-17 03:59N 37°43' W 122°20'0 0.2
2017-May-17 03:29N 37°43' W 122°20'0 0.1
2017-May-17 02:59N 37°43' W 122°20'0 0.0
2017-May-17 02:29N 37°43' W 122°20'0 0.1
2017-May-17 01:59N 37°43' W 122°20'0 0.1
2017-May-17 01:29N 37°43' W 122°20'0 0.0
2017-May-17 00:59N 37°43' W 122°20'0 0.0
2017-May-17 00:29N 37°43' W 122°20'0 0.1
2017-May-16 23:59N 37°43' W 122°20'0 0.0
2017-May-16 23:29N 37°43' W 122°20'0 0.0
2017-May-16 22:59N 37°43' W 122°20'0 0.0
2017-May-16 22:29N 37°43' W 122°20'0 0.0
2017-May-16 21:59N 37°43' W 122°20'0 0.0
2017-May-16 21:29N 37°43' W 122°20'0 0.0
2017-May-16 20:59N 37°43' W 122°20'0 0.0
2017-May-16 20:29N 37°43' W 122°20'0 0.1
2017-May-16 19:59N 37°43' W 122°20'0 0.1
2017-May-16 19:29N 37°43' W 122°20'0 0.1
2017-May-16 18:59N 37°43' W 122°20'0 0.0
2017-May-16 18:29N 37°43' W 122°20'0 0.1
2017-May-16 17:59N 37°43' W 122°20'0 0.2
2017-May-16 17:29N 37°43' W 122°20'0 0.1
2017-May-16 16:59N 37°43' W 122°20'0 0.0
2017-May-16 16:29N 37°43' W 122°20'0 0.1
2017-May-16 15:59N 37°43' W 122°20'0 0.0
2017-May-16 15:29N 37°43' W 122°20'0 0.0
2017-May-16 14:59N 37°43' W 122°20'0 0.0
2017-May-16 14:29N 37°43' W 122°20'0 0.0
2017-May-16 13:29N 37°43' W 122°20'0 0.0
2017-May-16 12:59N 37°43' W 122°20'0 0.1
2017-May-16 12:29N 37°43' W 122°20'0 0.2
2017-May-16 11:59N 37°43' W 122°20'0 0.1
2017-May-16 11:29N 37°43' W 122°20'0 0.1
2017-May-16 10:59N 37°43' W 122°20'0 0.2
2017-May-16 10:29N 37°43' W 122°20'0 0.0
2017-May-16 09:59N 37°43' W 122°20'0 0.0
2017-May-16 09:29N 37°43' W 122°20'0 0.0
2017-May-16 08:59N 37°43' W 122°20'0 0.1
2017-May-16 08:29N 37°43' W 122°20'0 0.0
2017-May-16 07:59N 37°43' W 122°20'0 0.0
2017-May-16 07:29N 37°43' W 122°20'0 0.1
2017-May-16 06:59N 37°43' W 122°20'0 0.0
2017-May-16 06:29N 37°43' W 122°20'0 0.1
2017-May-16 05:59N 37°43' W 122°20'0 0.0
2017-May-16 05:29N 37°43' W 122°20'0 0.0
2017-May-16 04:59N 37°43' W 122°20'0 0.1
2017-May-16 04:29N 37°43' W 122°20'0 0.2
2017-May-16 03:59N 37°43' W 122°20'0 0.0
2017-May-16 03:29N 37°43' W 122°20'0 0.1
2017-May-16 02:59N 37°43' W 122°20'0 0.0
2017-May-16 02:29N 37°43' W 122°20'0 0.0
2017-May-16 01:59N 37°43' W 122°20'0 0.2
2017-May-16 01:29N 37°43' W 122°20'0 0.1
2017-May-16 00:59N 37°43' W 122°20'0 0.1
2017-May-16 00:29N 37°43' W 122°20'0 0.0
2017-May-15 23:59N 37°43' W 122°20'0 0.1
2017-May-15 23:29N 37°43' W 122°20'0 0.0
2017-May-15 22:59N 37°43' W 122°20'0 0.0
2017-May-15 22:29N 37°43' W 122°20'0 0.0
2017-May-15 21:59N 37°43' W 122°20'0 0.0
2017-May-15 21:29N 37°43' W 122°20'0 0.0
2017-May-15 20:59N 37°43' W 122°20'0 0.0
2017-May-15 20:29N 37°43' W 122°20'0 0.0
2017-May-15 19:59N 37°43' W 122°20'0 0.0
2017-May-15 19:29N 37°43' W 122°20'1 1.8
2017-May-15 19:00N 37°43' W 122°21'5 9.9
2017-May-15 18:31N 37°48' W 122°23'5 9.7
2017-May-15 18:00N 37°49' W 122°29'611.1
2017-May-15 17:30N 37°47' W 122°36'510.7
2017-May-15 17:00N 37°45' W 122°42'4 8.7
2017-May-15 16:30N 37°42' W 122°46'5 9.2
2017-May-15 16:00N 37°39' W 122°51'4 8.9
2017-May-15 15:30N 37°37' W 122°55'4 8.7
2017-May-15 15:00N 37°34' W 122°60'8 8.4
2017-May-15 14:00N 37°28' W 123°08'  
Track history (hours):
 
Tides and Currents Weather Stations Pressure Air Temp Water Temp Dewpoint Dewpoint Depression Visibility Wind Speed Wind Dir Waves Ship Positions

Chantal

Last reported at 2017-May-25 09:26 UTC. Time now 2017-Jun-25 02:03 UTC.
Position N 33°08' W 122°01'.
Warning: this ship's position is 30 days out of date.

Length 228 m; draft 8.4 m.

Type: Tanker. MMSI: 636014805.

Date/timePositionNaut miles runAvg speedWind from/ knotsBaromVisibWave heightAir tempDewpointWater temp
2017-May-25 09:26N 33°08' W 122°01'613.8
2017-May-25 08:58N 33°14' W 122°03'613.9
2017-May-25 08:30N 33°20' W 122°05'8713.4
2017-May-25 02:03N 34°43' W 122°35'012.8
2017-May-25 02:00N 34°44' W 122°35'712.9
2017-May-25 01:27N 34°51' W 122°37'613.2
2017-May-25 01:00N 34°56' W 122°39'713.5
2017-May-25 00:28N 35°03' W 122°41'613.4
2017-May-25 00:00N 35°09' W 122°44'713.3
2017-May-24 23:27N 35°16' W 122°46'613.3
2017-May-24 23:00N 35°22' W 122°49'713.2
2017-May-24 22:30N 35°28' W 122°51'613.3
2017-May-24 22:00N 35°35' W 122°53'713.3
2017-May-24 21:28N 35°42' W 122°55'913.4
2017-May-24 20:48N 35°50' W 122°58'413.4
2017-May-24 20:30N 35°54' W 122°59'713.5
2017-May-24 20:00N 36°00' W 123°02'713.2
2017-May-24 19:30N 36°07' W 123°04'713.5
2017-May-24 19:00N 36°13' W 123°06'713.4
2017-May-24 18:30N 36°20' W 123°09'813.3
2017-May-24 17:52N 36°28' W 123°10'513.3
2017-May-24 17:30N 36°33' W 123°11'713.2
2017-May-24 17:00N 36°39' W 123°10'713.1
2017-May-24 16:30N 36°46' W 123°10'612.7
2017-May-24 16:00N 36°52' W 123°11'612.3
2017-May-24 15:30N 36°58' W 123°10'612.2
2017-May-24 15:00N 37°04' W 123°10'1312.8
2017-May-24 14:00N 37°17' W 123°09'713.3
2017-May-24 13:30N 37°24' W 123°09'713.0
2017-May-24 13:00N 37°30' W 123°06'611.9
2017-May-24 12:30N 37°35' W 123°02'510.9
2017-May-24 12:00N 37°38' W 122°57'510.9
2017-May-24 11:30N 37°41' W 122°51'510.5
2017-May-24 11:00N 37°43' W 122°45'4 8.6
2017-May-24 10:30N 37°46' W 122°40'714.8
2017-May-24 10:00N 37°48' W 122°32'713.3
2017-May-24 09:30N 37°53' W 122°26'714.5
2017-May-24 09:00N 38°00' W 122°25'713.1
2017-May-24 08:30N 38°03' W 122°18'611.2
2017-May-24 08:00N 38°03' W 122°11'3 0.1
2017-May-23 04:40N 38°02' W 122°07'0 0.6
2017-May-23 04:30N 38°02' W 122°08'2 3.4
2017-May-23 03:49N 38°03' W 122°10'3 8.4
2017-May-23 03:30N 38°04' W 122°13'510.1
2017-May-23 03:00N 38°03' W 122°20'510.2
2017-May-23 02:30N 38°00' W 122°25'511.0
2017-May-23 02:00N 37°55' W 122°27'510.8
2017-May-23 01:30N 37°50' W 122°24'4 8.6
2017-May-23 01:01N 37°46' W 122°22'3 6.4
2017-May-23 00:29N 37°43' W 122°20'0 0.1
2017-May-22 23:59N 37°43' W 122°20'0 0.2
2017-May-22 23:29N 37°43' W 122°20'0 0.1
2017-May-22 22:59N 37°43' W 122°20'0 0.1
2017-May-22 22:29N 37°43' W 122°20'0 0.1
2017-May-22 21:59N 37°43' W 122°20'0 0.0
2017-May-22 21:29N 37°43' W 122°20'0 0.0
2017-May-22 20:59N 37°43' W 122°20'0 0.0
2017-May-22 20:29N 37°43' W 122°20'0 0.0
2017-May-22 19:59N 37°43' W 122°20'0 0.0
2017-May-22 19:29N 37°43' W 122°20'0 0.1
2017-May-22 18:59N 37°43' W 122°20'0 0.4
2017-May-22 18:29N 37°43' W 122°20'0 0.1
2017-May-22 17:59N 37°43' W 122°20'0 0.1
2017-May-22 17:29N 37°43' W 122°20'0 0.0
2017-May-22 16:59N 37°43' W 122°20'0 0.1
2017-May-22 16:29N 37°43' W 122°20'0 0.1
2017-May-22 15:59N 37°43' W 122°20'0 0.0
2017-May-22 15:29N 37°43' W 122°20'0 0.0
2017-May-22 14:59N 37°43' W 122°20'0 0.0
2017-May-22 13:59N 37°43' W 122°20'0 0.0
2017-May-22 13:29N 37°43' W 122°20'0 0.0
2017-May-22 12:59N 37°43' W 122°20'0 0.1
2017-May-22 12:29N 37°43' W 122°20'0 0.2
2017-May-22 11:59N 37°43' W 122°20'0 0.3
2017-May-22 11:29N 37°43' W 122°20'0 0.1
2017-May-22 10:59N 37°43' W 122°20'0 0.0
2017-May-22 10:29N 37°43' W 122°20'0 0.0
2017-May-22 09:59N 37°43' W 122°20'0 0.0
2017-May-22 09:29N 37°43' W 122°20'0 0.0
2017-May-22 08:59N 37°43' W 122°20'0 0.1
2017-May-22 08:23N 37°43' W 122°20'0 0.1
2017-May-22 07:59N 37°43' W 122°20'0 0.1
2017-May-22 07:26N 37°43' W 122°20'0 0.2
2017-May-22 06:59N 37°43' W 122°20'0 0.2
2017-May-22 06:29N 37°43' W 122°20'0 0.3
2017-May-22 05:59N 37°43' W 122°20'0 0.1
2017-May-22 05:29N 37°43' W 122°20'0 0.0
2017-May-22 04:59N 37°43' W 122°20'0 0.0
2017-May-22 04:29N 37°43' W 122°20'0 0.1
2017-May-22 03:59N 37°43' W 122°20'0 0.1
2017-May-22 03:29N 37°43' W 122°20'0 0.0
2017-May-22 02:59N 37°43' W 122°20'0 0.0
2017-May-22 02:29N 37°43' W 122°20'0 0.0
2017-May-22 01:59N 37°43' W 122°20'0 0.0
2017-May-22 01:29N 37°43' W 122°20'0 0.0
2017-May-22 00:59N 37°43' W 122°20'0 0.0
2017-May-22 00:29N 37°43' W 122°20'0 0.0
2017-May-21 23:59N 37°43' W 122°20'0 0.0
2017-May-21 23:29N 37°43' W 122°20'0 0.2
2017-May-21 22:59N 37°43' W 122°20'0 0.2
2017-May-21 22:29N 37°43' W 122°20'0 0.1
2017-May-21 21:59N 37°43' W 122°20'0 0.0
2017-May-21 21:29N 37°43' W 122°20'0 0.0
2017-May-21 20:59N 37°43' W 122°20'0 0.1
2017-May-21 20:29N 37°43' W 122°20'0 0.0
2017-May-21 19:59N 37°43' W 122°20'0 0.0
2017-May-21 19:29N 37°43' W 122°20'0 0.0
2017-May-21 18:59N 37°43' W 122°20'0 0.1
2017-May-21 18:29N 37°43' W 122°20'0 0.0
2017-May-21 17:59N 37°43' W 122°20'0 0.2
2017-May-21 17:29N 37°43' W 122°20'0 0.2
2017-May-21 16:59N 37°43' W 122°20'0 0.0
2017-May-21 16:29N 37°43' W 122°20'0 0.1
2017-May-21 15:59N 37°43' W 122°20'0 0.0
2017-May-21 15:29N 37°43' W 122°20'0 0.0
2017-May-21 14:59N 37°43' W 122°20'0 0.0
2017-May-21 13:59N 37°43' W 122°20'0 0.0
2017-May-21 13:29N 37°43' W 122°20'0 0.0
2017-May-21 12:59N 37°43' W 122°20'0 0.0
2017-May-21 12:29N 37°43' W 122°20'0 0.1
2017-May-21 11:59N 37°43' W 122°20'0 0.1
2017-May-21 11:29N 37°43' W 122°20'0 0.2
2017-May-21 10:59N 37°43' W 122°20'0 0.3
2017-May-21 10:29N 37°43' W 122°20'0 0.0
2017-May-21 09:59N 37°43' W 122°20'0 0.0
2017-May-21 09:29N 37°43' W 122°20'0 0.1
2017-May-21 08:59N 37°43' W 122°20'0 0.0
2017-May-21 08:29N 37°43' W 122°20'0 0.0
2017-May-21 07:59N 37°43' W 122°20'0 0.1
2017-May-21 07:29N 37°43' W 122°20'0 0.0
2017-May-21 06:59N 37°43' W 122°20'0 0.2
2017-May-21 06:29N 37°43' W 122°20'0 0.2
2017-May-21 05:59N 37°43' W 122°20'0 0.0
2017-May-21 05:29N 37°43' W 122°20'0 0.1
2017-May-21 04:59N 37°43' W 122°20'0 0.1
2017-May-21 04:29N 37°43' W 122°20'0 0.0
2017-May-21 03:59N 37°43' W 122°20'0 0.0
2017-May-21 03:29N 37°43' W 122°20'0 0.0
2017-May-21 02:59N 37°43' W 122°20'0 0.0
2017-May-21 02:29N 37°43' W 122°20'0 0.0
2017-May-21 01:59N 37°43' W 122°20'0 0.0
2017-May-21 01:29N 37°43' W 122°20'0 0.0
2017-May-21 00:59N 37°43' W 122°20'0 0.0
2017-May-21 00:29N 37°43' W 122°20'0 0.0
2017-May-20 23:59N 37°43' W 122°20'0 0.0
2017-May-20 23:29N 37°43' W 122°20'0 0.0
2017-May-20 22:59N 37°43' W 122°20'0 0.1
2017-May-20 22:29N 37°43' W 122°20'0 0.2
2017-May-20 21:59N 37°43' W 122°20'0 0.2
2017-May-20 21:29N 37°43' W 122°20'0 0.1
2017-May-20 20:59N 37°43' W 122°20'0 0.1
2017-May-20 20:29N 37°43' W 122°20'0 0.1
2017-May-20 19:59N 37°43' W 122°20'0 0.1
2017-May-20 19:29N 37°43' W 122°20'0 0.0
2017-May-20 18:59N 37°43' W 122°20'0 0.0
2017-May-20 18:29N 37°43' W 122°20'0 0.0
2017-May-20 17:56N 37°43' W 122°20'0 0.0
2017-May-20 17:29N 37°43' W 122°20'0 0.0
2017-May-20 16:59N 37°43' W 122°20'0 0.1
2017-May-20 16:26N 37°43' W 122°20'0 0.3
2017-May-20 15:59N 37°43' W 122°20'0 0.1
2017-May-20 15:29N 37°43' W 122°20'0 0.1
2017-May-20 14:59N 37°43' W 122°20'0 0.0
2017-May-20 14:29N 37°43' W 122°20'0 0.0
2017-May-20 13:29N 37°43' W 122°20'0 0.1
2017-May-20 12:59N 37°43' W 122°20'0 0.0
2017-May-20 12:29N 37°43' W 122°20'0 0.1
2017-May-20 11:59N 37°43' W 122°20'0 0.1
2017-May-20 11:29N 37°43' W 122°20'0 0.0
2017-May-20 10:59N 37°43' W 122°20'0 0.1
2017-May-20 10:29N 37°43' W 122°20'0 0.2
2017-May-20 09:59N 37°43' W 122°20'0 0.1
2017-May-20 09:29N 37°43' W 122°20'0 0.1
2017-May-20 08:59N 37°43' W 122°20'0 0.1
2017-May-20 08:29N 37°43' W 122°20'0 0.0
2017-May-20 07:59N 37°43' W 122°20'0 0.0
2017-May-20 07:29N 37°43' W 122°20'0 0.1
2017-May-20 06:59N 37°43' W 122°20'0 0.0
2017-May-20 06:29N 37°43' W 122°20'0 0.1
2017-May-20 05:59N 37°43' W 122°20'0 0.3
2017-May-20 05:29N 37°43' W 122°20'0 0.1
2017-May-20 04:59N 37°43' W 122°20'0 0.1
2017-May-20 04:29N 37°43' W 122°20'0 0.1
2017-May-20 03:59N 37°43' W 122°20'0 0.1
2017-May-20 03:29N 37°43' W 122°20'0 0.0
2017-May-20 02:59N 37°43' W 122°20'0 0.0
2017-May-20 02:29N 37°43' W 122°20'0 0.0
2017-May-20 01:59N 37°43' W 122°20'0 0.0
2017-May-20 01:29N 37°43' W 122°20'0 0.0
2017-May-20 00:59N 37°43' W 122°20'0 0.0
2017-May-20 00:29N 37°43' W 122°20'0 0.0
2017-May-19 23:59N 37°43' W 122°20'0 0.0
2017-May-19 23:29N 37°43' W 122°20'0 0.1
2017-May-19 22:59N 37°43' W 122°20'0 0.1
2017-May-19 22:29N 37°43' W 122°20'0 0.0
2017-May-19 21:59N 37°43' W 122°20'0 0.2
2017-May-19 21:29N 37°43' W 122°20'0 0.2
2017-May-19 20:59N 37°43' W 122°20'0 0.1
2017-May-19 20:29N 37°43' W 122°20'0 0.0
2017-May-19 19:59N 37°43' W 122°20'0 0.0
2017-May-19 19:29N 37°43' W 122°20'0 0.0
2017-May-19 18:59N 37°43' W 122°20'0 0.1
2017-May-19 18:29N 37°43' W 122°20'0 0.0
2017-May-19 17:59N 37°43' W 122°20'0 0.0
2017-May-19 17:29N 37°43' W 122°20'0 0.0
2017-May-19 16:59N 37°43' W 122°20'0 0.0
2017-May-19 16:29N 37°43' W 122°20'0 0.0
2017-May-19 15:59N 37°43' W 122°20'0 0.0
2017-May-19 15:29N 37°43' W 122°20'0 0.2
2017-May-19 14:59N 37°43' W 122°20'0 0.2
2017-May-19 13:59N 37°43' W 122°20'0 0.0
2017-May-19 13:29N 37°43' W 122°20'0 0.0
2017-May-19 12:59N 37°43' W 122°20'0 0.0
2017-May-19 12:29N 37°43' W 122°20'0 0.0
2017-May-19 11:59N 37°43' W 122°20'0 0.0
2017-May-19 11:29N 37°43' W 122°20'0 0.0
2017-May-19 10:59N 37°43' W 122°20'0 0.0
2017-May-19 10:29N 37°43' W 122°20'0 0.1
2017-May-19 09:59N 37°43' W 122°20'0 0.2
2017-May-19 09:29N 37°43' W 122°20'0 0.2
2017-May-19 08:59N 37°43' W 122°20'0 0.1
2017-May-19 08:29N 37°43' W 122°20'0 0.0
2017-May-19 07:59N 37°43' W 122°20'0 0.1
2017-May-19 07:29N 37°43' W 122°20'0 0.0
2017-May-19 06:59N 37°43' W 122°20'0 0.1
2017-May-19 06:29N 37°43' W 122°20'0 0.1
2017-May-19 05:59N 37°43' W 122°20'0 0.2
2017-May-19 05:29N 37°43' W 122°20'0 0.2
2017-May-19 04:59N 37°43' W 122°20'0 0.0
2017-May-19 04:29N 37°43' W 122°20'0 0.2
2017-May-19 03:59N 37°43' W 122°20'0 0.1
2017-May-19 03:29N 37°43' W 122°20'0 0.1
2017-May-19 02:59N 37°43' W 122°20'0 0.0
2017-May-19 02:29N 37°43' W 122°20'0 0.0
2017-May-19 01:59N 37°43' W 122°20'0 0.0
2017-May-19 01:29N 37°43' W 122°20'0 0.0
2017-May-19 00:59N 37°43' W 122°20'0 0.0
2017-May-19 00:29N 37°43' W 122°20'0 0.0
2017-May-18 23:59N 37°43' W 122°20'0 0.0
2017-May-18 23:29N 37°43' W 122°20'0 0.1
2017-May-18 22:59N 37°43' W 122°20'0 0.1
2017-May-18 22:29N 37°43' W 122°20'0 0.0
2017-May-18 21:59N 37°43' W 122°20'0 0.1
2017-May-18 21:29N 37°43' W 122°20'0 0.0
2017-May-18 20:59N 37°43' W 122°20'0 0.2
2017-May-18 20:29N 37°43' W 122°20'0 0.2
2017-May-18 19:59N 37°43' W 122°20'0 0.1
2017-May-18 19:29N 37°43' W 122°20'0 0.1
2017-May-18 18:59N 37°43' W 122°20'0 0.1
2017-May-18 18:29N 37°43' W 122°20'0 0.0
2017-May-18 17:59N 37°43' W 122°20'0 0.0
2017-May-18 17:29N 37°43' W 122°20'0 0.1
2017-May-18 16:59N 37°43' W 122°20'0 0.0
2017-May-18 16:29N 37°43' W 122°20'0 0.0
2017-May-18 15:59N 37°43' W 122°20'0 0.0
2017-May-18 15:29N 37°43' W 122°20'0 0.0
2017-May-18 14:59N 37°43' W 122°20'0 0.0
2017-May-18 14:29N 37°43' W 122°20'0 0.2
2017-May-18 13:29N 37°43' W 122°20'0 0.1
2017-May-18 12:59N 37°43' W 122°20'0 0.1
2017-May-18 12:29N 37°43' W 122°20'0 0.0
2017-May-18 11:59N 37°43' W 122°20'0 0.0
2017-May-18 11:29N 37°43' W 122°20'0 0.0
2017-May-18 10:59N 37°43' W 122°20'0 0.1
2017-May-18 10:29N 37°43' W 122°20'0 0.0
2017-May-18 09:59N 37°43' W 122°20'0 0.0
2017-May-18 09:29N 37°43' W 122°20'0 0.1
2017-May-18 08:59N 37°43' W 122°20'0 0.3
2017-May-18 08:29N 37°43' W 122°20'0 0.3
2017-May-18 07:56N 37°43' W 122°20'0 0.0
2017-May-18 07:29N 37°43' W 122°20'0 0.0
2017-May-18 06:59N 37°43' W 122°20'0 0.1
2017-May-18 06:29N 37°43' W 122°20'0 0.0
2017-May-18 05:59N 37°43' W 122°20'0 0.0
2017-May-18 05:29N 37°43' W 122°20'0 0.4
2017-May-18 04:59N 37°43' W 122°20'0 0.1
2017-May-18 04:29N 37°43' W 122°20'0 0.0
2017-May-18 03:59N 37°43' W 122°20'0 0.0
2017-May-18 03:29N 37°43' W 122°20'0 0.1
2017-May-18 02:59N 37°43' W 122°20'0 0.1
2017-May-18 02:29N 37°43' W 122°20'0 0.1
2017-May-18 01:59N 37°43' W 122°20'0 0.0
2017-May-18 01:29N 37°43' W 122°20'0 0.0
2017-May-18 00:59N 37°43' W 122°20'0 0.0
2017-May-18 00:29N 37°43' W 122°20'0 0.0
2017-May-17 23:59N 37°43' W 122°20'0 0.0
2017-May-17 23:29N 37°43' W 122°20'0 0.0
2017-May-17 22:59N 37°43' W 122°20'0 0.1
2017-May-17 22:29N 37°43' W 122°20'0 0.0
2017-May-17 21:59N 37°43' W 122°20'0 0.1
2017-May-17 21:29N 37°43' W 122°20'0 0.1
2017-May-17 20:59N 37°43' W 122°20'0 0.1
2017-May-17 20:29N 37°43' W 122°20'0 0.1
2017-May-17 19:59N 37°43' W 122°20'0 0.2
2017-May-17 19:29N 37°43' W 122°20'0 0.1
2017-May-17 18:59N 37°43' W 122°20'0 0.0
2017-May-17 18:29N 37°43' W 122°20'0 0.0
2017-May-17 17:59N 37°43' W 122°20'0 0.0
2017-May-17 17:29N 37°43' W 122°20'0 0.1
2017-May-17 16:59N 37°43' W 122°20'0 0.0
2017-May-17 16:29N 37°43' W 122°20'0 0.0
2017-May-17 15:59N 37°43' W 122°20'0 0.0
2017-May-17 15:29N 37°43' W 122°20'0 0.0
2017-May-17 14:59N 37°43' W 122°20'0 0.0
2017-May-17 14:29N 37°43' W 122°20'0 0.0
2017-May-17 13:29N 37°43' W 122°20'0 0.0
2017-May-17 12:59N 37°43' W 122°20'0 0.2
2017-May-17 12:29N 37°43' W 122°20'0 0.3
2017-May-17 11:59N 37°43' W 122°20'0 0.2
2017-May-17 11:29N 37°43' W 122°20'0 0.1
2017-May-17 10:59N 37°43' W 122°20'0 0.0
2017-May-17 10:29N 37°43' W 122°20'0 0.1
2017-May-17 09:59N 37°43' W 122°20'0 0.0
2017-May-17 09:29N 37°43' W 122°20'0 0.0
2017-May-17 08:59N 37°43' W 122°20'0 0.0
2017-May-17 08:29N 37°43' W 122°20'0 0.1
2017-May-17 07:56N 37°43' W 122°20'0 0.0
2017-May-17 07:29N 37°43' W 122°20'0 0.1
2017-May-17 06:59N 37°43' W 122°20'0 0.0
2017-May-17 06:29N 37°43' W 122°20'0 0.1
2017-May-17 05:59N 37°43' W 122°20'0 0.4
2017-May-17 05:29N 37°43' W 122°20'0 0.0
2017-May-17 04:59N 37°43' W 122°20'0 0.1
2017-May-17 04:29N 37°43' W 122°20'0 0.3
2017-May-17 03:59N 37°43' W 122°20'0 0.2
2017-May-17 03:29N 37°43' W 122°20'0 0.1
2017-May-17 02:59N 37°43' W 122°20'0 0.0
2017-May-17 02:29N 37°43' W 122°20'0 0.1
2017-May-17 01:59N 37°43' W 122°20'0 0.1
2017-May-17 01:29N 37°43' W 122°20'0 0.0
2017-May-17 00:59N 37°43' W 122°20'0 0.0
2017-May-17 00:29N 37°43' W 122°20'0 0.1
2017-May-16 23:59N 37°43' W 122°20'0 0.0
2017-May-16 23:29N 37°43' W 122°20'0 0.0
2017-May-16 22:59N 37°43' W 122°20'0 0.0
2017-May-16 22:29N 37°43' W 122°20'0 0.0
2017-May-16 21:59N 37°43' W 122°20'0 0.0
2017-May-16 21:29N 37°43' W 122°20'0 0.0
2017-May-16 20:59N 37°43' W 122°20'0 0.0
2017-May-16 20:29N 37°43' W 122°20'0 0.1
2017-May-16 19:59N 37°43' W 122°20'0 0.1
2017-May-16 19:29N 37°43' W 122°20'0 0.1
2017-May-16 18:59N 37°43' W 122°20'0 0.0
2017-May-16 18:29N 37°43' W 122°20'0 0.1
2017-May-16 17:59N 37°43' W 122°20'0 0.2
2017-May-16 17:29N 37°43' W 122°20'0 0.1
2017-May-16 16:59N 37°43' W 122°20'0 0.0
2017-May-16 16:29N 37°43' W 122°20'0 0.1
2017-May-16 15:59N 37°43' W 122°20'0 0.0
2017-May-16 15:29N 37°43' W 122°20'0 0.0
2017-May-16 14:59N 37°43' W 122°20'0 0.0
2017-May-16 14:29N 37°43' W 122°20'0 0.0
2017-May-16 13:29N 37°43' W 122°20'0 0.0
2017-May-16 12:59N 37°43' W 122°20'0 0.1
2017-May-16 12:29N 37°43' W 122°20'0 0.2
2017-May-16 11:59N 37°43' W 122°20'0 0.1
2017-May-16 11:29N 37°43' W 122°20'0 0.1
2017-May-16 10:59N 37°43' W 122°20'0 0.2
2017-May-16 10:29N 37°43' W 122°20'0 0.0
2017-May-16 09:59N 37°43' W 122°20'0 0.0
2017-May-16 09:29N 37°43' W 122°20'0 0.0
2017-May-16 08:59N 37°43' W 122°20'0 0.1
2017-May-16 08:29N 37°43' W 122°20'0 0.0
2017-May-16 07:59N 37°43' W 122°20'0 0.0
2017-May-16 07:29N 37°43' W 122°20'0 0.1
2017-May-16 06:59N 37°43' W 122°20'0 0.0
2017-May-16 06:29N 37°43' W 122°20'0 0.1
2017-May-16 05:59N 37°43' W 122°20'0 0.0
2017-May-16 05:29N 37°43' W 122°20'0 0.0
2017-May-16 04:59N 37°43' W 122°20'0 0.1
2017-May-16 04:29N 37°43' W 122°20'0 0.2
2017-May-16 03:59N 37°43' W 122°20'0 0.0
2017-May-16 03:29N 37°43' W 122°20'0 0.1
2017-May-16 02:59N 37°43' W 122°20'0 0.0
2017-May-16 02:29N 37°43' W 122°20'0 0.0
2017-May-16 01:59N 37°43' W 122°20'0 0.2
2017-May-16 01:29N 37°43' W 122°20'0 0.1
2017-May-16 00:59N 37°43' W 122°20'0 0.1
2017-May-16 00:29N 37°43' W 122°20'0 0.0
2017-May-15 23:59N 37°43' W 122°20'0 0.1
2017-May-15 23:29N 37°43' W 122°20'0 0.0
2017-May-15 22:59N 37°43' W 122°20'0 0.0
2017-May-15 22:29N 37°43' W 122°20'0 0.0
2017-May-15 21:59N 37°43' W 122°20'0 0.0
2017-May-15 21:29N 37°43' W 122°20'0 0.0
2017-May-15 20:59N 37°43' W 122°20'0 0.0
2017-May-15 20:29N 37°43' W 122°20'0 0.0
2017-May-15 19:59N 37°43' W 122°20'0 0.0
2017-May-15 19:29N 37°43' W 122°20'1 1.8
2017-May-15 19:00N 37°43' W 122°21'5 9.9
2017-May-15 18:31N 37°48' W 122°23'5 9.7
2017-May-15 18:00N 37°49' W 122°29'611.1
2017-May-15 17:30N 37°47' W 122°36'510.7
2017-May-15 17:00N 37°45' W 122°42'4 8.7
2017-May-15 16:30N 37°42' W 122°46'5 9.2
2017-May-15 16:00N 37°39' W 122°51'4 8.9
2017-May-15 15:30N 37°37' W 122°55'4 8.7
2017-May-15 15:00N 37°34' W 122°60'8 8.4
2017-May-15 14:00N 37°28' W 123°08'  

Dump ship's entire track history